createdAt,value
2022-12-27T00:01:02.272Z,80.31
2022-12-27T00:03:30.470Z,79.95
2022-12-27T00:05:57.577Z,79.92
2022-12-27T00:08:24.595Z,79.83
2022-12-27T00:10:51.797Z,79.27
2022-12-27T00:13:18.751Z,78.77
2022-12-27T00:15:45.762Z,77.74
2022-12-27T00:18:12.858Z,77.08
2022-12-27T00:20:39.850Z,76.03
2022-12-27T00:23:07.093Z,75.95
2022-12-27T00:25:34.729Z,75.49
2022-12-27T00:28:01.816Z,73.68
2022-12-27T00:30:28.819Z,72.65
2022-12-27T00:32:55.949Z,72.50
2022-12-27T00:35:23.138Z,72.77
2022-12-27T00:37:50.427Z,72.55
2022-12-27T00:40:17.524Z,71.42
2022-12-27T00:42:44.648Z,69.12
2022-12-27T00:45:11.682Z,68.97
2022-12-27T00:47:38.699Z,69.46
2022-12-27T00:50:06.382Z,68.72
2022-12-27T00:52:33.579Z,68.28
2022-12-27T00:55:00.586Z,67.95
2022-12-27T00:57:27.613Z,67.11
2022-12-27T00:59:54.752Z,66.57
2022-12-27T01:02:21.974Z,66.21
2022-12-27T01:04:49.435Z,66.26
2022-12-27T01:07:16.440Z,66.05
2022-12-27T01:09:43.687Z,66.24
2022-12-27T01:12:10.666Z,66.83
2022-12-27T01:14:37.716Z,67.55
2022-12-27T01:17:04.809Z,68.17
2022-12-27T01:19:31.911Z,68.51
2022-12-27T01:21:59.035Z,68.52
2022-12-27T01:24:26.228Z,68.87
2022-12-27T01:26:53.230Z,69.40
2022-12-27T01:29:20.374Z,68.98
2022-12-27T01:31:48.645Z,68.23
2022-12-27T01:34:17.156Z,68.14
2022-12-27T01:36:44.948Z,68.06
2022-12-27T01:39:13.129Z,68.23
2022-12-27T01:42:01.727Z,68.92
2022-12-27T01:44:38.316Z,69.15
2022-12-27T01:47:31.645Z,68.78
2022-12-27T01:50:01.602Z,68.14
2022-12-27T01:52:35.284Z,67.48
2022-12-27T01:55:10.862Z,67.54
2022-12-27T01:57:38.672Z,66.80
2022-12-27T02:00:06.540Z,66.24
2022-12-27T02:02:34.679Z,65.96
2022-12-27T02:05:02.320Z,65.84
2022-12-27T02:07:53.885Z,65.38
2022-12-27T02:10:21.242Z,65.75
2022-12-27T02:12:48.245Z,65.91
2022-12-27T02:15:15.351Z,66.55
2022-12-27T02:17:42.396Z,66.85
2022-12-27T02:20:22.971Z,66.43
2022-12-27T02:23:40.106Z,67.41
2022-12-27T02:26:33.173Z,68.16
2022-12-27T02:29:15.131Z,68.39
2022-12-27T02:32:03.496Z,67.26
2022-12-27T02:34:54.376Z,66.92
2022-12-27T02:37:24.571Z,66.57
2022-12-27T02:39:52.321Z,66.52
2022-12-27T02:42:39.041Z,66.46
2022-12-27T02:45:50.860Z,67.54
2022-12-27T02:48:36.677Z,67.38
2022-12-27T02:51:22.215Z,67.42
2022-12-27T02:54:07.632Z,67.25
2022-12-27T02:57:12.981Z,67.25
2022-12-27T03:00:31.978Z,67.47
2022-12-27T03:03:23.577Z,67.43
2022-12-27T03:06:34.175Z,67.82
2022-12-27T03:10:01.399Z,67.50
2022-12-27T03:13:14.262Z,66.91
2022-12-27T03:15:57.765Z,66.28
2022-12-27T03:18:27.993Z,66.13
2022-12-27T03:21:19.258Z,65.93
2022-12-27T03:24:07.569Z,66.18
2022-12-27T03:26:38.027Z,66.74
2022-12-27T03:29:27.708Z,66.37
2022-12-27T03:32:17.474Z,65.31
2022-12-27T03:34:52.501Z,63.82
2022-12-27T03:37:44.423Z,62.38
2022-12-27T03:40:35.590Z,61.65
2022-12-27T03:43:14.049Z,61.47
2022-12-27T03:46:25.217Z,61.15
2022-12-27T03:49:17.133Z,61.72
2022-12-27T03:51:56.071Z,61.89
2022-12-27T03:54:30.650Z,62.92
2022-12-27T03:57:02.840Z,63.20
2022-12-27T03:59:30.516Z,63.64
2022-12-27T04:01:58.103Z,64.18
2022-12-27T04:04:25.374Z,64.35
2022-12-27T04:06:52.692Z,64.82
2022-12-27T04:09:38.226Z,64.73
2022-12-27T04:12:23.775Z,63.61
2022-12-27T04:15:09.534Z,63.31
2022-12-27T04:17:55.302Z,62.76
2022-12-27T04:20:41.205Z,62.09
2022-12-27T04:23:26.520Z,62.20
2022-12-27T04:26:12.138Z,61.98
2022-12-27T04:28:58.129Z,62.19
2022-12-27T04:31:43.713Z,61.94
2022-12-27T04:34:29.408Z,62.10
2022-12-27T04:36:56.608Z,62.23
2022-12-27T04:39:23.838Z,62.47
2022-12-27T04:42:09.575Z,62.77
2022-12-27T04:44:55.224Z,63.11
2022-12-27T04:47:42.218Z,63.34
2022-12-27T04:50:40.680Z,63.17
2022-12-27T04:53:35.014Z,62.71
2022-12-27T04:56:04.127Z,62.27
2022-12-27T04:58:31.643Z,62.65
2022-12-27T05:01:25.008Z,62.32
2022-12-27T05:04:02.378Z,61.75
2022-12-27T05:06:29.427Z,61.32
2022-12-27T05:09:19.964Z,61.20
2022-12-27T05:12:13.074Z,61.17
2022-12-27T05:14:40.086Z,60.28
2022-12-27T05:17:07.010Z,59.69
2022-12-27T05:19:34.062Z,59.62
2022-12-27T05:22:19.420Z,59.23
2022-12-27T05:25:05.312Z,58.02
2022-12-27T05:27:32.384Z,58.02
2022-12-27T05:29:59.322Z,58.22
2022-12-27T05:32:26.463Z,57.82
2022-12-27T05:34:53.510Z,57.93
2022-12-27T05:37:20.592Z,58.00
2022-12-27T05:39:47.544Z,57.57
2022-12-27T05:42:14.580Z,57.50
2022-12-27T05:44:41.551Z,57.73
2022-12-27T05:47:08.566Z,58.13
2022-12-27T05:49:36.248Z,58.92
2022-12-27T05:52:03.566Z,59.03
2022-12-27T05:54:30.533Z,58.17
2022-12-27T05:56:57.554Z,57.41
2022-12-27T05:59:24.623Z,56.12
2022-12-27T06:01:51.937Z,56.60
2022-12-27T06:04:18.992Z,56.68
2022-12-27T06:06:46.040Z,56.36
2022-12-27T06:09:14.340Z,56.14
2022-12-27T06:11:41.675Z,55.61
2022-12-27T06:14:08.651Z,56.05
2022-12-27T06:16:35.834Z,56.40
2022-12-27T06:19:03.246Z,56.17
2022-12-27T06:21:30.385Z,56.76
2022-12-27T06:23:57.555Z,57.05
2022-12-27T06:26:28.457Z,57.24
2022-12-27T06:28:57.275Z,57.99
2022-12-27T06:31:25.265Z,58.50
2022-12-27T06:33:54.598Z,58.91
2022-12-27T06:36:27.799Z,58.80
2022-12-27T06:38:54.933Z,58.91
2022-12-27T06:41:22.107Z,58.54
2022-12-27T06:43:55.010Z,58.37
2022-12-27T06:46:24.675Z,58.40
2022-12-27T06:48:52.355Z,58.18
2022-12-27T06:51:21.152Z,58.16
2022-12-27T06:53:48.764Z,58.38
2022-12-27T06:56:18.237Z,58.53
2022-12-27T06:58:47.083Z,58.62
2022-12-27T07:01:15.586Z,58.82
2022-12-27T07:03:43.146Z,58.86
2022-12-27T07:06:11.932Z,59.07
2022-12-27T07:08:39.590Z,59.09
2022-12-27T07:11:09.290Z,59.29
2022-12-27T07:13:38.387Z,59.43
2022-12-27T07:16:11.019Z,59.42
2022-12-27T07:18:38.772Z,59.29
2022-12-27T07:21:11.206Z,59.37
2022-12-27T07:23:39.251Z,59.35
2022-12-27T07:26:15.326Z,59.40
2022-12-27T07:28:43.153Z,59.35
2022-12-27T07:31:12.975Z,59.92
2022-12-27T07:33:40.503Z,60.13
2022-12-27T07:36:10.646Z,60.15
2022-12-27T07:38:37.684Z,59.89
2022-12-27T07:41:05.338Z,59.13
2022-12-27T07:43:34.050Z,60.24
2022-12-27T07:46:26.229Z,60.17
2022-12-27T07:48:55.718Z,60.58
2022-12-27T07:51:22.984Z,64.97
2022-12-27T07:53:52.711Z,65.19
2022-12-27T07:56:26.178Z,65.41
2022-12-27T07:58:55.752Z,65.97
2022-12-27T08:01:24.556Z,66.60
2022-12-27T08:03:51.817Z,67.53
2022-12-27T08:06:34.183Z,68.25
2022-12-27T08:09:06.384Z,69.42
2022-12-27T08:11:33.461Z,69.54
2022-12-27T08:14:00.487Z,69.40
2022-12-27T08:16:27.835Z,69.17
2022-12-27T08:18:54.813Z,69.67
2022-12-27T08:21:24.246Z,68.90
2022-12-27T08:23:51.496Z,67.07
2022-12-27T08:26:18.600Z,65.38
2022-12-27T08:28:45.834Z,65.54
2022-12-27T08:31:13.515Z,65.17
2022-12-27T08:33:42.183Z,65.00
2022-12-27T08:38:59.308Z,64.08
2022-12-27T08:41:26.337Z,62.44
2022-12-27T08:43:53.331Z,62.68
2022-12-27T08:46:20.467Z,61.21
2022-12-27T08:48:51.725Z,61.01
2022-12-27T08:51:31.103Z,59.77
2022-12-27T08:54:00.604Z,59.39
2022-12-27T08:56:27.745Z,58.73
2022-12-27T08:58:54.866Z,58.66
2022-12-27T09:01:22.636Z,57.73
2022-12-27T09:03:50.038Z,56.72
2022-12-27T09:06:23.032Z,56.23
2022-12-27T09:08:51.392Z,56.34
2022-12-27T09:11:19.817Z,55.49
2022-12-27T09:13:47.409Z,55.94
2022-12-27T09:16:18.887Z,55.88
2022-12-27T09:18:49.168Z,56.22
2022-12-27T09:21:17.296Z,55.75
2022-12-27T09:23:45.474Z,54.18
2022-12-27T09:26:15.076Z,53.77
2022-12-27T09:28:42.987Z,54.13
2022-12-27T09:31:12.155Z,54.55
2022-12-27T09:33:39.448Z,53.65
2022-12-27T09:36:15.627Z,53.09
2022-12-27T09:38:43.262Z,53.50
2022-12-27T09:42:12.139Z,52.00
2022-12-27T09:44:43.138Z,53.20
2022-12-27T09:47:16.801Z,53.86
2022-12-27T09:49:48.467Z,52.38
2022-12-27T09:52:47.148Z,45.85
2022-12-27T09:55:37.261Z,49.78
2022-12-27T09:58:14.760Z,48.15
2022-12-27T10:00:46.260Z,49.45
2022-12-27T10:03:14.050Z,50.74
2022-12-27T10:05:48.200Z,51.91
2022-12-27T10:08:39.018Z,51.37
2022-12-27T10:11:41.410Z,50.17
2022-12-27T10:14:20.390Z,49.36
2022-12-27T10:17:12.122Z,48.49
2022-12-27T10:19:53.003Z,49.90
2022-12-27T10:22:22.941Z,49.16
2022-12-27T10:24:56.422Z,49.13
2022-12-27T10:27:29.524Z,48.10
2022-12-27T10:29:59.230Z,48.07
2022-12-27T10:32:27.098Z,48.15
2022-12-27T10:35:01.497Z,46.71
2022-12-27T10:37:29.055Z,45.15
2022-12-27T10:40:04.487Z,45.21
2022-12-27T10:42:46.131Z,49.72
2022-12-27T10:45:33.675Z,48.16
2022-12-27T10:48:28.918Z,45.85
2022-12-27T10:51:06.586Z,45.97
2022-12-27T10:53:53.625Z,45.66
2022-12-27T10:56:35.906Z,44.26
2022-12-27T10:59:13.779Z,43.39
2022-12-27T11:01:41.464Z,44.01
2022-12-27T11:04:20.137Z,43.08
2022-12-27T11:07:11.380Z,42.44
2022-12-27T11:09:46.245Z,40.82
2022-12-27T11:12:21.826Z,39.65
2022-12-27T11:15:13.871Z,38.69
2022-12-27T11:17:47.044Z,38.67
2022-12-27T11:20:23.179Z,38.71
2022-12-27T11:23:00.990Z,36.79
2022-12-27T11:25:29.518Z,37.71
2022-12-27T11:28:01.779Z,36.71
2022-12-27T11:30:36.942Z,37.31
2022-12-27T11:33:26.848Z,37.47
2022-12-27T11:35:57.821Z,38.23
2022-12-27T11:38:32.049Z,38.52
2022-12-27T11:41:01.978Z,39.51
2022-12-27T11:43:36.207Z,38.58
2022-12-27T11:46:10.802Z,37.91
2022-12-27T11:48:42.559Z,36.96
2022-12-27T11:51:53.411Z,37.14
2022-12-27T11:54:28.248Z,36.33
2022-12-27T11:57:35.274Z,37.14
2022-12-27T12:00:22.519Z,36.91
2022-12-27T12:03:01.788Z,35.99
2022-12-27T12:05:58.967Z,35.86
2022-12-27T12:08:44.543Z,36.29
2022-12-27T12:11:15.943Z,36.57
2022-12-27T12:14:04.043Z,37.13
2022-12-27T12:16:43.306Z,37.20
2022-12-27T12:19:20.092Z,38.18
2022-12-27T12:21:49.843Z,37.78
2022-12-27T12:24:55.760Z,37.78
2022-12-27T12:27:47.704Z,36.91
2022-12-27T12:30:33.805Z,38.39
2022-12-27T12:33:33.766Z,36.46
2022-12-27T12:36:22.397Z,38.12
2022-12-27T12:39:37.053Z,36.01
2022-12-27T12:42:06.772Z,37.52
2022-12-27T12:45:11.558Z,37.27
2022-12-27T12:47:52.054Z,35.24
2022-12-27T12:51:02.540Z,36.17
2022-12-27T12:54:05.129Z,35.88
2022-12-27T12:56:44.448Z,34.11
2022-12-27T12:59:32.054Z,34.43
2022-12-27T13:02:26.479Z,35.30
2022-12-27T13:05:25.424Z,34.45
2022-12-27T13:08:26.609Z,34.43
2022-12-27T13:11:20.303Z,35.04
2022-12-27T13:14:18.638Z,32.80
2022-12-27T13:16:59.777Z,34.20
2022-12-27T13:20:06.802Z,33.37
2022-12-27T13:23:22.141Z,33.48
2022-12-27T13:25:59.137Z,32.04
2022-12-27T13:28:58.621Z,31.50
2022-12-27T13:31:37.849Z,32.85
2022-12-27T13:34:37.804Z,32.89
2022-12-27T13:37:25.196Z,34.12
2022-12-27T13:40:29.359Z,34.54
2022-12-27T13:43:13.045Z,37.72
2022-12-27T13:46:12.464Z,42.89
2022-12-27T13:49:07.649Z,40.21
2022-12-27T13:51:41.550Z,39.93
2022-12-27T13:54:39.720Z,40.39
2022-12-27T13:57:19.809Z,37.88
2022-12-27T14:00:00.218Z,42.38
2022-12-27T14:02:58.269Z,47.82
2022-12-27T14:05:56.684Z,52.46
2022-12-27T14:08:23.770Z,50.50
2022-12-27T14:10:58.611Z,47.85
2022-12-27T14:13:39.026Z,47.99
2022-12-27T14:16:27.249Z,49.21
2022-12-27T14:19:32.895Z,48.85
2022-12-27T14:22:30.511Z,48.81
2022-12-27T14:25:31.608Z,48.88
2022-12-27T14:28:36.042Z,51.14
2022-12-27T14:31:32.599Z,52.18
2022-12-27T14:34:08.382Z,52.80
2022-12-27T14:36:59.696Z,54.42
2022-12-27T14:39:57.175Z,55.75
2022-12-27T14:42:39.221Z,55.85
2022-12-27T14:45:18.408Z,57.08
2022-12-27T14:48:00.826Z,58.20
2022-12-27T14:50:49.190Z,59.39
2022-12-27T14:54:01.100Z,60.42
2022-12-27T14:56:37.095Z,60.78
2022-12-27T14:59:22.021Z,62.13
2022-12-27T15:02:17.188Z,62.72
2022-12-27T15:05:02.363Z,64.16
2022-12-27T15:08:06.624Z,64.77
2022-12-27T15:11:00.692Z,66.66
2022-12-27T15:13:36.822Z,67.62
2022-12-27T15:16:56.128Z,68.08
2022-12-27T15:19:23.085Z,69.54
2022-12-27T15:22:10.225Z,70.04
2022-12-27T15:25:02.423Z,70.34
2022-12-27T15:27:40.248Z,71.11
2022-12-27T15:30:33.565Z,71.45
2022-12-27T15:33:32.044Z,72.90
2022-12-27T15:36:15.682Z,73.52
2022-12-27T15:38:54.559Z,75.04
2022-12-27T15:42:01.128Z,77.56
2022-12-27T15:44:48.231Z,79.95
2022-12-27T15:47:52.907Z,83.37
2022-12-27T15:50:38.369Z,86.02
2022-12-27T15:53:35.141Z,88.27
2022-12-27T15:56:19.940Z,89.42
2022-12-27T15:59:25.435Z,90.37
2022-12-27T16:02:33.278Z,91.09
2022-12-27T16:05:25.909Z,91.10
2022-12-27T16:08:13.165Z,90.60
2022-12-27T16:10:41.497Z,90.51
2022-12-27T16:13:11.220Z,90.61
2022-12-27T16:15:44.979Z,90.35
2022-12-27T16:18:18.082Z,90.00
2022-12-27T16:20:57.286Z,89.34
2022-12-27T16:23:27.268Z,88.94
2022-12-27T16:26:10.723Z,90.92
2022-12-27T16:28:39.367Z,92.05
2022-12-27T16:31:13.442Z,93.48
2022-12-27T16:33:42.914Z,93.88
2022-12-27T16:36:36.325Z,93.72
2022-12-27T16:39:04.467Z,94.09
2022-12-27T16:41:50.244Z,95.18
2022-12-27T16:44:26.869Z,95.08
2022-12-27T16:46:57.219Z,95.07
2022-12-27T16:49:24.337Z,94.83
2022-12-27T16:52:17.148Z,95.18
2022-12-27T16:55:08.707Z,95.84
2022-12-27T16:57:43.238Z,95.86
2022-12-27T17:00:11.163Z,96.43
2022-12-27T17:02:40.178Z,98.18
2022-12-27T17:05:16.455Z,98.31
2022-12-27T17:07:52.661Z,98.32
2022-12-27T17:10:57.340Z,98.79
2022-12-27T17:13:40.256Z,99.35
2022-12-27T17:16:20.371Z,99.57
2022-12-27T17:18:50.312Z,99.72
2022-12-27T17:21:29.475Z,100.00
2022-12-27T17:24:12.824Z,99.90
2022-12-27T17:27:00.267Z,98.87
2022-12-27T17:29:54.539Z,98.52
2022-12-27T17:32:40.058Z,98.95
2022-12-27T17:35:12.930Z,98.42
2022-12-27T17:38:18.088Z,97.58
2022-12-27T17:41:04.430Z,97.41
2022-12-27T17:44:15.045Z,97.15
2022-12-27T17:47:03.399Z,96.14
2022-12-27T17:49:32.294Z,94.41
2022-12-27T17:52:19.336Z,93.86
2022-12-27T17:55:04.878Z,93.11
2022-12-27T17:57:50.539Z,92.80
2022-12-27T18:00:26.425Z,92.25
2022-12-27T18:02:56.915Z,92.07
2022-12-27T18:05:30.233Z,91.57
2022-12-27T18:08:19.047Z,91.19
2022-12-27T18:10:46.423Z,90.17
2022-12-27T18:13:18.595Z,89.82
2022-12-27T18:15:49.208Z,89.67
2022-12-27T18:18:30.790Z,89.34
2022-12-27T18:21:01.130Z,89.15
2022-12-27T18:23:28.531Z,88.52
2022-12-27T18:26:13.923Z,87.95
2022-12-27T18:28:42.734Z,87.03
2022-12-27T18:31:32.830Z,86.42
2022-12-27T18:34:07.832Z,85.00
2022-12-27T18:36:46.112Z,84.30
2022-12-27T18:39:26.484Z,83.41
2022-12-27T18:41:55.525Z,82.54
2022-12-27T18:44:27.750Z,81.89
2022-12-27T18:47:01.304Z,81.84
2022-12-27T18:49:31.678Z,81.72
2022-12-27T18:51:59.535Z,82.14
2022-12-27T18:54:29.532Z,82.85
2022-12-27T18:56:58.307Z,84.55
2022-12-27T18:59:30.439Z,84.98
2022-12-27T19:02:19.244Z,85.02
2022-12-27T19:05:21.145Z,85.19
2022-12-27T19:08:11.396Z,85.49
2022-12-27T19:10:46.429Z,85.81
2022-12-27T19:13:23.657Z,86.30
2022-12-27T19:15:52.368Z,86.36
2022-12-27T19:18:34.363Z,85.92
2022-12-27T19:21:03.905Z,85.11
2022-12-27T19:23:37.884Z,84.89
2022-12-27T19:26:25.155Z,84.64
2022-12-27T19:29:16.421Z,82.37
2022-12-27T19:31:51.318Z,80.04
2022-12-27T19:34:20.392Z,77.65
2022-12-27T19:36:49.653Z,77.34
2022-12-27T19:39:27.737Z,78.20
2022-12-27T19:42:00.409Z,78.13
2022-12-27T19:44:29.474Z,77.01
2022-12-27T19:46:56.478Z,75.51
2022-12-27T19:49:42.072Z,74.32
2022-12-27T19:52:27.129Z,73.34
2022-12-27T19:55:02.227Z,73.35
2022-12-27T19:57:29.334Z,74.15
2022-12-27T19:59:56.645Z,74.56
2022-12-27T20:02:24.182Z,74.18
2022-12-27T20:04:52.248Z,74.07
2022-12-27T20:07:24.997Z,74.34
2022-12-27T20:09:52.280Z,74.42
2022-12-27T20:12:20.191Z,74.31
2022-12-27T20:14:47.763Z,74.39
2022-12-27T20:17:15.130Z,75.31
2022-12-27T20:19:42.405Z,76.86
2022-12-27T20:22:09.745Z,77.60
2022-12-27T20:24:38.062Z,77.67
2022-12-27T20:27:06.008Z,77.42
2022-12-27T20:29:33.233Z,76.96
2022-12-27T20:32:00.681Z,76.14
2022-12-27T20:34:28.214Z,76.02
2022-12-27T20:36:55.646Z,75.68
2022-12-27T20:39:22.750Z,75.62
2022-12-27T20:41:49.908Z,75.47
2022-12-27T20:44:17.266Z,75.45
2022-12-27T20:46:44.529Z,75.42
2022-12-27T20:49:11.851Z,74.97
2022-12-27T20:51:38.880Z,74.69
2022-12-27T20:54:06.470Z,74.87
2022-12-27T20:56:35.493Z,75.06
2022-12-27T20:59:02.829Z,75.17
2022-12-27T21:01:30.249Z,75.21
2022-12-27T21:03:57.598Z,75.36
2022-12-27T21:06:27.638Z,74.62
2022-12-27T21:08:57.597Z,74.01
2022-12-27T21:11:31.601Z,73.98
2022-12-27T21:14:01.122Z,74.20
2022-12-27T21:16:29.578Z,74.58
2022-12-27T21:18:56.910Z,73.52
2022-12-27T21:21:28.343Z,73.35
2022-12-27T21:23:58.121Z,73.38
2022-12-27T21:26:29.030Z,73.46
2022-12-27T21:28:57.310Z,73.04
2022-12-27T21:31:24.924Z,72.86
2022-12-27T21:33:52.103Z,72.92
2022-12-27T21:36:22.457Z,73.34
2022-12-27T21:38:49.761Z,73.60
2022-12-27T21:41:23.027Z,74.00
2022-12-27T21:43:50.392Z,73.99
2022-12-27T21:46:25.668Z,73.66
2022-12-27T21:49:01.174Z,73.85
2022-12-27T21:51:29.770Z,73.97
2022-12-27T21:53:57.144Z,74.36
2022-12-27T21:56:24.942Z,74.70
2022-12-27T21:58:52.401Z,74.89
2022-12-27T22:01:25.047Z,74.89
2022-12-27T22:03:53.721Z,75.16
2022-12-27T22:06:27.569Z,75.47
2022-12-27T22:08:58.298Z,75.39
2022-12-27T22:11:26.817Z,75.10
2022-12-27T22:13:54.528Z,74.69
2022-12-27T22:16:24.578Z,74.35
2022-12-27T22:18:51.979Z,74.00
2022-12-27T22:21:22.298Z,73.78
2022-12-27T22:23:51.757Z,73.92
2022-12-27T22:26:22.082Z,74.13
2022-12-27T22:28:49.808Z,74.03
2022-12-27T22:31:22.956Z,73.56
2022-12-27T22:33:51.281Z,73.48
2022-12-27T22:36:21.092Z,73.57
2022-12-27T22:38:50.870Z,73.87
2022-12-27T22:41:22.665Z,73.94
2022-12-27T22:43:52.424Z,73.59
2022-12-27T22:46:19.811Z,73.89
2022-12-27T22:48:54.836Z,73.96
2022-12-27T22:51:30.837Z,73.52
2022-12-27T22:53:59.031Z,72.86
2022-12-27T22:56:28.800Z,72.60
2022-12-27T22:58:55.991Z,72.35
2022-12-27T23:01:31.705Z,72.37
2022-12-27T23:04:01.755Z,72.35
2022-12-27T23:06:29.887Z,72.65
2022-12-27T23:08:58.360Z,72.77
2022-12-27T23:11:31.605Z,72.59
2022-12-27T23:14:04.898Z,72.99
2022-12-27T23:16:35.826Z,72.92
2022-12-27T23:19:03.200Z,73.15
2022-12-27T23:21:30.128Z,73.23
2022-12-27T23:23:57.282Z,73.18
2022-12-27T23:26:24.288Z,73.52
2022-12-27T23:28:52.964Z,73.68
2022-12-27T23:31:23.079Z,72.92
2022-12-27T23:33:51.016Z,73.16
2022-12-27T23:36:19.091Z,72.53
2022-12-27T23:38:46.505Z,72.47
2022-12-27T23:41:19.888Z,72.59
2022-12-27T23:43:55.682Z,72.46
2022-12-27T23:46:34.068Z,72.59
2022-12-27T23:49:03.707Z,72.56
2022-12-27T23:51:32.499Z,72.61
2022-12-27T23:54:00.110Z,72.31
2022-12-27T23:56:30.601Z,71.69
2022-12-27T23:58:59.761Z,71.09
